sensor_id;sensor_type;location;lat;lon;timestamp;temperature;humidity
58666;DHT22;44436;52.872;6.520;2022-11-20T00:01:15;-0.90;99.90
58666;DHT22;44436;52.872;6.520;2022-11-20T00:03:41;-0.90;99.90
58666;DHT22;44436;52.872;6.520;2022-11-20T00:06:09;-0.90;99.90
58666;DHT22;44436;52.872;6.520;2022-11-20T00:08:35;-0.90;99.90
58666;DHT22;44436;52.872;6.520;2022-11-20T00:11:21;-0.80;99.90
58666;DHT22;44436;52.872;6.520;2022-11-20T00:13:49;-0.80;99.90
58666;DHT22;44436;52.872;6.520;2022-11-20T00:16:17;-0.80;99.90
58666;DHT22;44436;52.872;6.520;2022-11-20T00:18:43;-0.70;99.90
58666;DHT22;44436;52.872;6.520;2022-11-20T00:21:15;-0.70;99.90
58666;DHT22;44436;52.872;6.520;2022-11-20T00:23:41;-0.70;99.90
58666;DHT22;44436;52.872;6.520;2022-11-20T00:26:09;-0.70;99.90
58666;DHT22;44436;52.872;6.520;2022-11-20T00:28:35;-0.70;99.90
58666;DHT22;44436;52.872;6.520;2022-11-20T00:31:06;-0.60;99.90
58666;DHT22;44436;52.872;6.520;2022-11-20T00:33:33;-0.60;99.90
58666;DHT22;44436;52.872;6.520;2022-11-20T00:36:00;-0.60;99.90
58666;DHT22;44436;52.872;6.520;2022-11-20T00:38:26;-0.60;99.90
58666;DHT22;44436;52.872;6.520;2022-11-20T00:40:56;-0.60;99.90
58666;DHT22;44436;52.872;6.520;2022-11-20T00:43:23;-0.50;99.90
58666;DHT22;44436;52.872;6.520;2022-11-20T00:45:48;-0.50;99.90
58666;DHT22;44436;52.872;6.520;2022-11-20T00:48:14;-0.40;99.90
58666;DHT22;44436;52.872;6.520;2022-11-20T00:50:41;-0.40;99.90
58666;DHT22;44436;52.872;6.520;2022-11-20T00:53:07;-0.40;99.90
58666;DHT22;44436;52.872;6.520;2022-11-20T00:55:32;-0.40;99.90
58666;DHT22;44436;52.872;6.520;2022-11-20T00:57:58;-0.40;99.90
58666;DHT22;44436;52.872;6.520;2022-11-20T01:00:24;-0.30;99.90
58666;DHT22;44436;52.872;6.520;2022-11-20T01:02:49;-0.30;99.90
58666;DHT22;44436;52.872;6.520;2022-11-20T01:05:15;-0.30;99.90
58666;DHT22;44436;52.872;6.520;2022-11-20T01:07:41;-0.30;99.90
58666;DHT22;44436;52.872;6.520;2022-11-20T01:10:07;-0.30;99.90
58666;DHT22;44436;52.872;6.520;2022-11-20T01:12:32;-0.30;99.90
58666;DHT22;44436;52.872;6.520;2022-11-20T01:14:58;-0.20;99.90
58666;DHT22;44436;52.872;6.520;2022-11-20T01:17:24;-0.20;99.90
58666;DHT22;44436;52.872;6.520;2022-11-20T01:19:49;-0.20;99.90
58666;DHT22;44436;52.872;6.520;2022-11-20T01:22:16;-0.20;99.90
58666;DHT22;44436;52.872;6.520;2022-11-20T01:24:41;-0.20;99.90
58666;DHT22;44436;52.872;6.520;2022-11-20T01:27:07;-0.20;99.90
58666;DHT22;44436;52.872;6.520;2022-11-20T01:29:33;-0.20;99.90
58666;DHT22;44436;52.872;6.520;2022-11-20T01:31:58;-0.20;99.90
58666;DHT22;44436;52.872;6.520;2022-11-20T01:34:24;-0.20;99.90
58666;DHT22;44436;52.872;6.520;2022-11-20T01:36:51;-0.10;99.90
58666;DHT22;44436;52.872;6.520;2022-11-20T01:39:21;-0.10;99.90
58666;DHT22;44436;52.872;6.520;2022-11-20T01:41:49;-0.10;99.90
58666;DHT22;44436;52.872;6.520;2022-11-20T01:44:56;-0.10;99.90
58666;DHT22;44436;52.872;6.520;2022-11-20T01:50:02;-0.10;99.90
58666;DHT22;44436;52.872;6.520;2022-11-20T01:55:36;0.00;99.90
58666;DHT22;44436;52.872;6.520;2022-11-20T01:58:05;0.00;99.90
58666;DHT22;44436;52.872;6.520;2022-11-20T02:00:31;0.00;99.90
58666;DHT22;44436;52.872;6.520;2022-11-20T02:03:00;0.00;99.90
58666;DHT22;44436;52.872;6.520;2022-11-20T02:08:02;0.00;99.90
58666;DHT22;44436;52.872;6.520;2022-11-20T02:10:29;0.00;99.90
58666;DHT22;44436;52.872;6.520;2022-11-20T02:12:55;0.00;99.90
58666;DHT22;44436;52.872;6.520;2022-11-20T02:15:40;0.00;99.90
58666;DHT22;44436;52.872;6.520;2022-11-20T02:18:06;0.00;99.90
58666;DHT22;44436;52.872;6.520;2022-11-20T02:20:33;0.00;99.90
58666;DHT22;44436;52.872;6.520;2022-11-20T02:23:10;0.10;99.90
58666;DHT22;44436;52.872;6.520;2022-11-20T02:25:38;0.00;99.90
58666;DHT22;44436;52.872;6.520;2022-11-20T02:28:05;0.10;99.90
58666;DHT22;44436;52.872;6.520;2022-11-20T02:30:31;0.10;99.90
58666;DHT22;44436;52.872;6.520;2022-11-20T02:32:57;0.10;99.90
58666;DHT22;44436;52.872;6.520;2022-11-20T02:37:52;0.10;99.90
58666;DHT22;44436;52.872;6.520;2022-11-20T02:40:19;0.10;99.90
58666;DHT22;44436;52.872;6.520;2022-11-20T02:42:44;0.20;99.90
58666;DHT22;44436;52.872;6.520;2022-11-20T02:45:10;0.20;99.90
58666;DHT22;44436;52.872;6.520;2022-11-20T02:47:36;0.20;99.90
58666;DHT22;44436;52.872;6.520;2022-11-20T02:50:03;0.20;99.90
58666;DHT22;44436;52.872;6.520;2022-11-20T02:52:29;0.20;99.90
58666;DHT22;44436;52.872;6.520;2022-11-20T02:54:55;0.20;99.90
58666;DHT22;44436;52.872;6.520;2022-11-20T02:57:20;0.20;99.90
58666;DHT22;44436;52.872;6.520;2022-11-20T02:59:46;0.20;99.90
58666;DHT22;44436;52.872;6.520;2022-11-20T03:02:12;0.20;99.90
58666;DHT22;44436;52.872;6.520;2022-11-20T03:04:37;0.20;99.90
58666;DHT22;44436;52.872;6.520;2022-11-20T03:07:03;0.20;99.90
58666;DHT22;44436;52.872;6.520;2022-11-20T03:09:29;0.20;99.90
58666;DHT22;44436;52.872;6.520;2022-11-20T03:11:55;0.20;99.90
58666;DHT22;44436;52.872;6.520;2022-11-20T03:14:20;0.20;99.90
58666;DHT22;44436;52.872;6.520;2022-11-20T03:16:46;0.30;99.90
58666;DHT22;44436;52.872;6.520;2022-11-20T03:19:12;0.30;99.90
58666;DHT22;44436;52.872;6.520;2022-11-20T03:21:38;0.30;99.90
58666;DHT22;44436;52.872;6.520;2022-11-20T03:24:04;0.30;99.90
58666;DHT22;44436;52.872;6.520;2022-11-20T03:26:29;0.30;99.90
58666;DHT22;44436;52.872;6.520;2022-11-20T03:29:00;0.30;99.90
58666;DHT22;44436;52.872;6.520;2022-11-20T03:31:28;0.30;99.90
58666;DHT22;44436;52.872;6.520;2022-11-20T03:33:56;0.40;99.90
58666;DHT22;44436;52.872;6.520;2022-11-20T03:36:22;0.40;99.90
58666;DHT22;44436;52.872;6.520;2022-11-20T03:38:48;0.40;99.90
58666;DHT22;44436;52.872;6.520;2022-11-20T03:41:17;0.40;99.90
58666;DHT22;44436;52.872;6.520;2022-11-20T03:43:48;0.40;99.90
58666;DHT22;44436;52.872;6.520;2022-11-20T03:46:14;0.40;99.90
58666;DHT22;44436;52.872;6.520;2022-11-20T03:48:39;0.40;99.90
58666;DHT22;44436;52.872;6.520;2022-11-20T03:51:13;0.50;99.90
58666;DHT22;44436;52.872;6.520;2022-11-20T03:53:40;0.40;99.90
58666;DHT22;44436;52.872;6.520;2022-11-20T03:56:07;0.50;99.90
58666;DHT22;44436;52.872;6.520;2022-11-20T03:58:34;0.40;99.90
58666;DHT22;44436;52.872;6.520;2022-11-20T04:01:13;0.40;99.90
58666;DHT22;44436;52.872;6.520;2022-11-20T04:03:40;0.40;99.90
58666;DHT22;44436;52.872;6.520;2022-11-20T04:06:11;0.40;99.90
58666;DHT22;44436;52.872;6.520;2022-11-20T04:08:37;0.40;99.90
58666;DHT22;44436;52.872;6.520;2022-11-20T04:11:09;0.40;99.90
58666;DHT22;44436;52.872;6.520;2022-11-20T04:13:36;0.40;99.90
58666;DHT22;44436;52.872;6.520;2022-11-20T04:16:02;0.40;99.90
58666;DHT22;44436;52.872;6.520;2022-11-20T04:18:27;0.40;99.90
58666;DHT22;44436;52.872;6.520;2022-11-20T04:20:53;0.40;99.90
58666;DHT22;44436;52.872;6.520;2022-11-20T04:23:19;0.40;99.90
58666;DHT22;44436;52.872;6.520;2022-11-20T04:25:44;0.50;99.90
58666;DHT22;44436;52.872;6.520;2022-11-20T04:28:10;0.40;99.90
58666;DHT22;44436;52.872;6.520;2022-11-20T04:30:36;0.50;99.90
58666;DHT22;44436;52.872;6.520;2022-11-20T04:33:01;0.50;99.90
58666;DHT22;44436;52.872;6.520;2022-11-20T04:35:27;0.50;99.90
58666;DHT22;44436;52.872;6.520;2022-11-20T04:37:52;0.50;99.90
58666;DHT22;44436;52.872;6.520;2022-11-20T04:40:18;0.50;99.90
58666;DHT22;44436;52.872;6.520;2022-11-20T04:42:44;0.50;99.90
58666;DHT22;44436;52.872;6.520;2022-11-20T04:45:09;0.50;99.90
58666;DHT22;44436;52.872;6.520;2022-11-20T04:47:35;0.50;99.90
58666;DHT22;44436;52.872;6.520;2022-11-20T04:50:01;0.50;99.90
58666;DHT22;44436;52.872;6.520;2022-11-20T04:52:26;0.50;99.90
58666;DHT22;44436;52.872;6.520;2022-11-20T04:54:52;0.40;99.90
58666;DHT22;44436;52.872;6.520;2022-11-20T04:57:19;0.50;99.90
58666;DHT22;44436;52.872;6.520;2022-11-20T04:59:44;0.50;99.90
58666;DHT22;44436;52.872;6.520;2022-11-20T05:02:10;0.50;99.90
58666;DHT22;44436;52.872;6.520;2022-11-20T05:04:36;0.50;99.90
58666;DHT22;44436;52.872;6.520;2022-11-20T05:07:02;0.50;99.90
58666;DHT22;44436;52.872;6.520;2022-11-20T05:09:28;0.50;99.90
58666;DHT22;44436;52.872;6.520;2022-11-20T05:11:54;0.60;99.90
58666;DHT22;44436;52.872;6.520;2022-11-20T05:14:19;0.60;99.90
58666;DHT22;44436;52.872;6.520;2022-11-20T05:16:45;0.60;99.90
58666;DHT22;44436;52.872;6.520;2022-11-20T05:19:11;0.60;99.90
58666;DHT22;44436;52.872;6.520;2022-11-20T05:21:36;0.60;99.90
58666;DHT22;44436;52.872;6.520;2022-11-20T05:24:02;0.70;99.90
58666;DHT22;44436;52.872;6.520;2022-11-20T05:26:28;0.60;99.90
58666;DHT22;44436;52.872;6.520;2022-11-20T05:28:53;0.60;99.90
58666;DHT22;44436;52.872;6.520;2022-11-20T05:31:21;0.60;99.90
58666;DHT22;44436;52.872;6.520;2022-11-20T05:33:47;0.60;99.90
58666;DHT22;44436;52.872;6.520;2022-11-20T05:36:14;0.60;99.90
58666;DHT22;44436;52.872;6.520;2022-11-20T05:38:41;0.60;99.90
58666;DHT22;44436;52.872;6.520;2022-11-20T05:41:09;0.60;99.90
58666;DHT22;44436;52.872;6.520;2022-11-20T05:43:36;0.60;99.90
58666;DHT22;44436;52.872;6.520;2022-11-20T05:46:03;0.60;99.90
58666;DHT22;44436;52.872;6.520;2022-11-20T05:48:30;0.60;99.90
58666;DHT22;44436;52.872;6.520;2022-11-20T05:51:00;0.60;99.90
58666;DHT22;44436;52.872;6.520;2022-11-20T05:53:26;0.60;99.90
58666;DHT22;44436;52.872;6.520;2022-11-20T05:56:07;0.60;99.90
58666;DHT22;44436;52.872;6.520;2022-11-20T05:58:34;0.70;99.90
58666;DHT22;44436;52.872;6.520;2022-11-20T06:03:36;0.70;99.90
58666;DHT22;44436;52.872;6.520;2022-11-20T06:06:03;0.70;99.90
58666;DHT22;44436;52.872;6.520;2022-11-20T06:08:30;0.70;99.90
58666;DHT22;44436;52.872;6.520;2022-11-20T06:10:56;0.70;99.90
58666;DHT22;44436;52.872;6.520;2022-11-20T06:13:21;0.70;99.90
58666;DHT22;44436;52.872;6.520;2022-11-20T06:15:51;0.80;99.90
58666;DHT22;44436;52.872;6.520;2022-11-20T06:18:18;0.80;99.90
58666;DHT22;44436;52.872;6.520;2022-11-20T06:20:44;0.80;99.90
58666;DHT22;44436;52.872;6.520;2022-11-20T06:23:09;0.70;99.90
58666;DHT22;44436;52.872;6.520;2022-11-20T06:25:40;0.70;99.90
58666;DHT22;44436;52.872;6.520;2022-11-20T06:28:06;0.70;99.90
58666;DHT22;44436;52.872;6.520;2022-11-20T06:30:32;0.70;99.90
58666;DHT22;44436;52.872;6.520;2022-11-20T06:32:57;0.70;99.90
58666;DHT22;44436;52.872;6.520;2022-11-20T06:35:23;0.70;99.90
58666;DHT22;44436;52.872;6.520;2022-11-20T06:37:49;0.80;99.90
58666;DHT22;44436;52.872;6.520;2022-11-20T06:40:14;0.80;99.90
58666;DHT22;44436;52.872;6.520;2022-11-20T06:42:40;0.80;99.90
58666;DHT22;44436;52.872;6.520;2022-11-20T06:45:06;0.70;99.90
58666;DHT22;44436;52.872;6.520;2022-11-20T06:47:32;0.80;99.90
58666;DHT22;44436;52.872;6.520;2022-11-20T06:49:58;0.80;99.90
58666;DHT22;44436;52.872;6.520;2022-11-20T06:52:24;0.80;99.90
58666;DHT22;44436;52.872;6.520;2022-11-20T06:54:49;0.70;99.90
58666;DHT22;44436;52.872;6.520;2022-11-20T06:57:15;0.70;99.90
58666;DHT22;44436;52.872;6.520;2022-11-20T06:59:41;0.70;99.90
58666;DHT22;44436;52.872;6.520;2022-11-20T07:02:12;0.70;99.90
58666;DHT22;44436;52.872;6.520;2022-11-20T07:04:38;0.70;99.90
58666;DHT22;44436;52.872;6.520;2022-11-20T07:07:04;0.80;99.90
58666;DHT22;44436;52.872;6.520;2022-11-20T07:09:30;0.80;99.90
58666;DHT22;44436;52.872;6.520;2022-11-20T07:11:56;0.80;99.90
58666;DHT22;44436;52.872;6.520;2022-11-20T07:14:21;0.80;99.90
58666;DHT22;44436;52.872;6.520;2022-11-20T07:16:47;0.80;99.90
58666;DHT22;44436;52.872;6.520;2022-11-20T07:19:13;0.80;99.90
58666;DHT22;44436;52.872;6.520;2022-11-20T07:21:38;0.90;99.90
58666;DHT22;44436;52.872;6.520;2022-11-20T07:24:04;0.80;99.90
58666;DHT22;44436;52.872;6.520;2022-11-20T07:26:29;0.80;99.90
58666;DHT22;44436;52.872;6.520;2022-11-20T07:28:55;0.80;99.90
58666;DHT22;44436;52.872;6.520;2022-11-20T07:31:21;0.80;99.90
58666;DHT22;44436;52.872;6.520;2022-11-20T07:33:47;0.80;99.90
58666;DHT22;44436;52.872;6.520;2022-11-20T07:36:12;0.80;99.90
58666;DHT22;44436;52.872;6.520;2022-11-20T07:38:38;0.80;99.90
58666;DHT22;44436;52.872;6.520;2022-11-20T07:41:04;0.80;99.90
58666;DHT22;44436;52.872;6.520;2022-11-20T07:43:30;0.80;99.90
58666;DHT22;44436;52.872;6.520;2022-11-20T07:45:57;0.80;99.90
58666;DHT22;44436;52.872;6.520;2022-11-20T07:48:24;0.80;99.90
58666;DHT22;44436;52.872;6.520;2022-11-20T07:50:52;0.80;99.90
58666;DHT22;44436;52.872;6.520;2022-11-20T07:53:18;0.80;99.90
58666;DHT22;44436;52.872;6.520;2022-11-20T07:55:46;0.80;99.90
58666;DHT22;44436;52.872;6.520;2022-11-20T07:58:12;0.80;99.90
58666;DHT22;44436;52.872;6.520;2022-11-20T08:00:38;0.80;99.90
58666;DHT22;44436;52.872;6.520;2022-11-20T08:03:07;0.90;99.90
58666;DHT22;44436;52.872;6.520;2022-11-20T08:05:33;0.90;99.90
58666;DHT22;44436;52.872;6.520;2022-11-20T08:07:59;0.90;99.90
58666;DHT22;44436;52.872;6.520;2022-11-20T08:10:24;0.90;99.90
58666;DHT22;44436;52.872;6.520;2022-11-20T08:12:51;1.00;99.90
58666;DHT22;44436;52.872;6.520;2022-11-20T08:15:38;0.90;99.90
58666;DHT22;44436;52.872;6.520;2022-11-20T08:18:09;1.00;99.90
58666;DHT22;44436;52.872;6.520;2022-11-20T08:20:36;1.00;99.90
58666;DHT22;44436;52.872;6.520;2022-11-20T08:23:06;1.00;99.90
58666;DHT22;44436;52.872;6.520;2022-11-20T08:25:34;1.00;99.90
58666;DHT22;44436;52.872;6.520;2022-11-20T08:28:02;1.00;99.90
58666;DHT22;44436;52.872;6.520;2022-11-20T08:30:28;1.00;99.90
58666;DHT22;44436;52.872;6.520;2022-11-20T08:32:54;1.00;99.90
58666;DHT22;44436;52.872;6.520;2022-11-20T08:35:21;1.00;99.90
58666;DHT22;44436;52.872;6.520;2022-11-20T08:37:47;1.00;99.90
58666;DHT22;44436;52.872;6.520;2022-11-20T08:40:14;1.00;99.90
58666;DHT22;44436;52.872;6.520;2022-11-20T08:42:50;1.00;99.90
58666;DHT22;44436;52.872;6.520;2022-11-20T08:45:18;1.00;99.90
58666;DHT22;44436;52.872;6.520;2022-11-20T08:47:44;1.10;99.90
58666;DHT22;44436;52.872;6.520;2022-11-20T08:50:11;1.10;99.90
58666;DHT22;44436;52.872;6.520;2022-11-20T08:52:37;1.10;99.90
58666;DHT22;44436;52.872;6.520;2022-11-20T08:55:04;1.20;99.90
58666;DHT22;44436;52.872;6.520;2022-11-20T08:57:34;1.20;99.90
58666;DHT22;44436;52.872;6.520;2022-11-20T09:00:01;1.20;99.90
58666;DHT22;44436;52.872;6.520;2022-11-20T09:02:27;1.20;99.90
58666;DHT22;44436;52.872;6.520;2022-11-20T09:04:53;1.20;99.90
58666;DHT22;44436;52.872;6.520;2022-11-20T09:07:19;1.30;99.90
58666;DHT22;44436;52.872;6.520;2022-11-20T09:09:45;1.30;99.90
58666;DHT22;44436;52.872;6.520;2022-11-20T09:12:10;1.30;99.90
58666;DHT22;44436;52.872;6.520;2022-11-20T09:14:36;1.40;99.90
58666;DHT22;44436;52.872;6.520;2022-11-20T09:17:03;1.40;99.90
58666;DHT22;44436;52.872;6.520;2022-11-20T09:19:28;1.40;99.90
